createdAt,value
2022-12-20T00:00:10.316Z,21.63
2022-12-20T00:02:56.061Z,20.30
2022-12-20T00:05:43.349Z,22.50
2022-12-20T00:08:29.108Z,20.90
2022-12-20T00:11:14.858Z,23.25
2022-12-20T00:14:00.729Z,21.52
2022-12-20T00:16:46.657Z,21.85
2022-12-20T00:19:32.123Z,21.63
2022-12-20T00:22:17.781Z,22.58
2022-12-20T00:25:05.197Z,22.10
2022-12-20T00:27:51.112Z,22.20
2022-12-20T00:30:36.590Z,23.25
2022-12-20T00:33:22.147Z,23.30
2022-12-20T00:36:08.925Z,22.95
2022-12-20T00:38:56.762Z,22.08
2022-12-20T00:41:42.385Z,23.58
2022-12-20T00:44:28.663Z,23.70
2022-12-20T00:47:14.883Z,23.50
2022-12-20T00:50:00.430Z,22.60
2022-12-20T00:52:49.637Z,23.27
2022-12-20T00:55:35.249Z,24.40
2022-12-20T00:58:20.707Z,24.10
2022-12-20T01:01:15.139Z,22.35
2022-12-20T01:04:01.670Z,22.17
2022-12-20T01:06:47.156Z,24.38
2022-12-20T01:09:32.745Z,21.67
2022-12-20T01:12:18.913Z,21.85
2022-12-20T01:15:06.194Z,22.48
2022-12-20T01:17:51.776Z,22.92
2022-12-20T01:20:37.518Z,23.48
2022-12-20T01:23:23.003Z,22.63
2022-12-20T01:26:19.303Z,21.10
2022-12-20T01:29:04.888Z,22.45
2022-12-20T01:31:50.335Z,22.10
2022-12-20T01:34:36.217Z,22.08
2022-12-20T01:37:21.837Z,23.33
2022-12-20T01:40:10.334Z,21.08
2022-12-20T01:42:56.109Z,21.75
2022-12-20T01:45:41.971Z,21.98
2022-12-20T01:48:27.627Z,22.20
2022-12-20T01:51:13.894Z,22.38
2022-12-20T01:54:08.106Z,21.10
2022-12-20T01:57:01.050Z,20.52
2022-12-20T01:59:48.944Z,20.67
2022-12-20T02:02:34.812Z,21.60
2022-12-20T02:05:23.459Z,20.38
2022-12-20T02:08:11.099Z,20.08
2022-12-20T02:11:23.621Z,21.48
2022-12-20T02:14:18.095Z,20.73
2022-12-20T02:17:31.037Z,20.85
2022-12-20T02:20:44.351Z,20.70
2022-12-20T02:24:03.869Z,20.00
2022-12-20T02:27:23.496Z,22.30
2022-12-20T02:30:21.728Z,16.58
2022-12-20T02:33:13.018Z,21.10
2022-12-20T02:35:58.345Z,20.17
2022-12-20T02:38:44.972Z,20.80
2022-12-20T02:41:42.519Z,20.42
2022-12-20T02:44:50.297Z,20.42
2022-12-20T02:48:20.190Z,20.40
2022-12-20T02:51:08.853Z,18.90
2022-12-20T02:53:54.581Z,21.10
2022-12-20T02:56:52.250Z,20.48
2022-12-20T03:00:05.637Z,21.80
2022-12-20T03:03:10.777Z,19.35
2022-12-20T03:05:57.771Z,20.75
2022-12-20T03:08:43.247Z,19.23
2022-12-20T03:11:28.711Z,20.58
2022-12-20T03:14:14.449Z,19.80
2022-12-20T03:17:00.543Z,19.13
2022-12-20T03:19:46.310Z,19.33
2022-12-20T03:22:32.557Z,20.02
2022-12-20T03:25:18.251Z,18.42
2022-12-20T03:28:03.781Z,20.33
2022-12-20T03:30:50.139Z,20.63
2022-12-20T03:33:35.938Z,18.42
2022-12-20T03:36:23.699Z,17.60
2022-12-20T03:39:09.487Z,20.83
2022-12-20T03:41:55.133Z,20.33
2022-12-20T03:44:40.653Z,18.63
2022-12-20T03:47:26.646Z,19.38
2022-12-20T03:50:12.515Z,20.27
2022-12-20T03:52:57.996Z,19.90
2022-12-20T03:55:45.639Z,19.25
2022-12-20T03:58:31.511Z,18.35
2022-12-20T04:01:28.401Z,20.48
2022-12-20T04:04:15.296Z,18.65
2022-12-20T04:07:00.910Z,18.30
2022-12-20T04:09:46.798Z,18.08
2022-12-20T04:12:32.233Z,18.70
2022-12-20T04:15:17.795Z,20.17
2022-12-20T04:18:03.313Z,20.90
2022-12-20T04:20:54.084Z,19.35
2022-12-20T04:23:42.759Z,20.08
2022-12-20T04:26:29.441Z,18.13
2022-12-20T04:29:15.283Z,20.70
2022-12-20T04:32:01.225Z,18.98
2022-12-20T04:34:47.241Z,19.63
2022-12-20T04:37:32.556Z,18.90
2022-12-20T04:40:17.917Z,17.75
2022-12-20T04:43:03.442Z,18.60
2022-12-20T04:45:52.379Z,18.20
2022-12-20T04:48:58.355Z,20.27
2022-12-20T04:51:44.994Z,18.48
2022-12-20T04:54:30.698Z,22.08
2022-12-20T04:57:16.078Z,21.35
2022-12-20T05:00:01.724Z,22.05
2022-12-20T05:02:47.825Z,22.02
2022-12-20T05:05:33.602Z,22.30
2022-12-20T05:08:19.255Z,22.85
2022-12-20T05:11:06.140Z,21.27
2022-12-20T05:13:51.551Z,19.15
2022-12-20T05:16:37.549Z,20.17
2022-12-20T05:19:24.519Z,19.58
2022-12-20T05:22:31.857Z,21.52
2022-12-20T05:25:46.983Z,21.13
2022-12-20T05:28:33.256Z,23.65
2022-12-20T05:31:19.146Z,20.52
2022-12-20T05:34:04.873Z,20.80
2022-12-20T05:36:50.652Z,19.75
2022-12-20T05:39:36.376Z,20.08
2022-12-20T05:42:21.750Z,18.45
2022-12-20T05:45:08.114Z,19.80
2022-12-20T05:47:53.681Z,18.80
2022-12-20T05:50:39.172Z,20.08
2022-12-20T05:53:24.957Z,17.65
2022-12-20T05:56:10.864Z,19.40
2022-12-20T05:58:57.552Z,19.05
2022-12-20T06:01:43.447Z,19.88
2022-12-20T06:04:31.161Z,18.98
2022-12-20T06:07:16.581Z,19.85
2022-12-20T06:10:02.338Z,19.48
2022-12-20T06:12:47.724Z,18.80
2022-12-20T06:15:33.498Z,18.25
2022-12-20T06:18:20.553Z,21.00
2022-12-20T06:21:06.392Z,19.45
2022-12-20T06:23:51.903Z,18.90
2022-12-20T06:26:37.934Z,19.17
2022-12-20T06:29:24.807Z,17.83
2022-12-20T06:32:10.699Z,19.98
2022-12-20T06:34:56.686Z,20.20
2022-12-20T06:37:42.757Z,19.98
2022-12-20T06:40:28.214Z,18.60
2022-12-20T06:43:14.230Z,17.65
2022-12-20T06:46:00.103Z,18.55
2022-12-20T06:48:46.094Z,19.33
2022-12-20T06:51:31.861Z,19.58
2022-12-20T06:54:17.320Z,19.48
2022-12-20T06:57:02.835Z,19.08
2022-12-20T06:59:48.420Z,19.20
2022-12-20T07:02:34.019Z,20.45
2022-12-20T07:05:19.543Z,19.70
2022-12-20T07:08:05.808Z,18.90
2022-12-20T07:10:52.925Z,19.73
2022-12-20T07:13:38.461Z,18.58
2022-12-20T07:16:24.456Z,19.10
2022-12-20T07:19:15.641Z,20.20
2022-12-20T07:22:01.804Z,18.50
2022-12-20T07:24:47.829Z,19.23
2022-12-20T07:27:33.581Z,18.70
2022-12-20T07:30:21.121Z,19.73
2022-12-20T07:33:07.630Z,21.02
2022-12-20T07:35:54.924Z,21.10
2022-12-20T07:38:40.590Z,20.10
2022-12-20T07:41:26.121Z,19.95
2022-12-20T07:44:11.799Z,21.67
2022-12-20T07:46:57.785Z,22.55
2022-12-20T07:49:43.105Z,25.17
2022-12-20T07:52:29.894Z,25.10
2022-12-20T07:55:15.550Z,25.48
2022-12-20T07:58:07.902Z,25.90
2022-12-20T08:00:53.489Z,24.00
2022-12-20T08:03:47.648Z,22.35
2022-12-20T08:06:34.836Z,24.05
2022-12-20T08:09:20.777Z,21.42
2022-12-20T08:12:08.747Z,22.88
2022-12-20T08:14:56.488Z,20.90
2022-12-20T08:17:42.041Z,22.75
2022-12-20T08:20:27.954Z,21.70
2022-12-20T08:23:13.392Z,20.95
2022-12-20T08:26:01.759Z,19.50
2022-12-20T08:28:47.186Z,21.27
2022-12-20T08:31:32.660Z,22.48
2022-12-20T08:34:19.365Z,20.42
2022-12-20T08:37:10.628Z,21.02
2022-12-20T08:40:00.925Z,19.95
2022-12-20T08:42:47.162Z,20.75
2022-12-20T08:45:32.694Z,20.42
2022-12-20T08:48:18.055Z,21.55
2022-12-20T08:51:08.567Z,21.20
2022-12-20T08:53:54.454Z,20.05
2022-12-20T08:56:39.776Z,20.40
2022-12-20T08:59:26.256Z,20.42
2022-12-20T09:02:12.522Z,21.30
2022-12-20T09:04:58.216Z,21.23
2022-12-20T09:07:43.722Z,22.35
2022-12-20T09:10:29.086Z,23.73
2022-12-20T09:13:14.463Z,26.52
2022-12-20T09:16:05.741Z,23.98
2022-12-20T09:19:04.236Z,22.50
2022-12-20T09:21:50.780Z,22.80
2022-12-20T09:24:38.169Z,20.45
2022-12-20T09:27:23.717Z,20.55
2022-12-20T09:30:09.667Z,24.25
2022-12-20T09:32:55.133Z,21.90
2022-12-20T09:35:47.494Z,20.90
2022-12-20T09:38:33.651Z,21.80
2022-12-20T09:41:40.754Z,21.60
2022-12-20T09:44:34.993Z,21.27
2022-12-20T09:47:24.803Z,22.83
2022-12-20T09:50:17.887Z,21.67
2022-12-20T09:53:42.827Z,22.63
2022-12-20T09:56:37.895Z,22.33
2022-12-20T09:59:23.520Z,22.75
2022-12-20T10:02:53.048Z,21.40
2022-12-20T10:05:37.133Z,22.02
2022-12-20T10:09:00.106Z,21.20
2022-12-20T10:12:25.432Z,25.23
2022-12-20T10:15:37.555Z,21.08
2022-12-20T10:18:59.189Z,22.23
2022-12-20T10:22:09.567Z,19.55
2022-12-20T10:25:16.004Z,20.90
2022-12-20T10:28:10.329Z,21.05
2022-12-20T10:31:02.980Z,22.40
2022-12-20T10:33:48.559Z,21.30
2022-12-20T10:36:37.338Z,21.02
2022-12-20T10:39:42.722Z,21.25
2022-12-20T10:42:42.443Z,22.63
2022-12-20T10:45:39.319Z,22.10
2022-12-20T10:48:41.112Z,21.95
2022-12-20T10:51:26.421Z,22.48
2022-12-20T10:54:31.579Z,22.45
2022-12-20T10:57:21.736Z,21.88
2022-12-20T11:00:26.594Z,23.05
2022-12-20T11:03:22.191Z,23.02
2022-12-20T11:06:17.079Z,22.83
2022-12-20T11:09:35.545Z,20.80
2022-12-20T11:12:21.220Z,21.95
2022-12-20T11:15:31.650Z,21.27
2022-12-20T11:18:39.774Z,22.38
2022-12-20T11:22:03.559Z,22.05
2022-12-20T11:25:31.151Z,22.73
2022-12-20T11:29:04.329Z,23.33
2022-12-20T11:35:39.268Z,22.95
2022-12-20T11:38:58.911Z,23.15
2022-12-20T11:42:38.518Z,21.00
2022-12-20T11:45:30.150Z,22.98
2022-12-20T11:48:46.537Z,23.15
2022-12-20T11:51:46.706Z,20.92
2022-12-20T11:54:43.804Z,22.77
2022-12-20T11:58:02.084Z,21.77
2022-12-20T12:00:56.980Z,22.17
2022-12-20T12:04:04.541Z,24.23
2022-12-20T12:06:53.381Z,24.95
2022-12-20T12:10:23.427Z,24.00
2022-12-20T12:13:18.980Z,25.05
2022-12-20T12:16:16.642Z,24.05
2022-12-20T12:19:03.596Z,26.88
2022-12-20T12:21:59.415Z,26.13
2022-12-20T12:24:52.413Z,28.92
2022-12-20T12:27:38.981Z,29.10
2022-12-20T12:30:25.008Z,26.42
2022-12-20T12:33:25.802Z,27.55
2022-12-20T12:36:20.787Z,25.88
2022-12-20T12:40:02.876Z,25.15
2022-12-20T12:42:49.556Z,23.27
2022-12-20T12:45:45.515Z,24.80
2022-12-20T12:48:56.716Z,26.40
2022-12-20T12:51:50.268Z,27.90
2022-12-20T12:54:40.768Z,25.70
2022-12-20T12:57:26.398Z,28.25
2022-12-20T13:01:02.416Z,27.50
2022-12-20T13:03:54.264Z,25.40
2022-12-20T13:06:53.730Z,26.60
2022-12-20T13:09:41.973Z,27.40
2022-12-20T13:12:36.837Z,25.50
2022-12-20T13:15:22.305Z,26.63
2022-12-20T13:18:13.813Z,26.73
2022-12-20T13:21:38.848Z,29.75
2022-12-20T13:24:53.351Z,26.98
2022-12-20T13:27:40.901Z,27.95
2022-12-20T13:30:28.327Z,31.48
2022-12-20T13:33:24.479Z,27.08
2022-12-20T13:36:10.223Z,28.45
2022-12-20T13:39:21.614Z,29.40
2022-12-20T13:42:34.266Z,29.13
2022-12-20T13:45:19.881Z,29.50
2022-12-20T13:48:11.358Z,29.42
2022-12-20T13:50:58.169Z,26.02
2022-12-20T13:53:56.048Z,29.85
2022-12-20T13:56:50.423Z,28.33
2022-12-20T13:59:35.993Z,27.02
2022-12-20T14:02:34.580Z,28.02
2022-12-20T14:05:27.248Z,26.60
2022-12-20T14:08:21.791Z,28.23
2022-12-20T14:11:19.500Z,26.13
2022-12-20T14:14:05.088Z,27.95
2022-12-20T14:16:50.521Z,28.20
2022-12-20T14:19:36.168Z,28.58
2022-12-20T14:22:21.459Z,27.33
2022-12-20T14:25:09.126Z,27.17
2022-12-20T14:27:55.927Z,27.98
2022-12-20T14:30:44.746Z,30.00
2022-12-20T14:33:34.633Z,27.95
2022-12-20T14:36:21.483Z,26.13
2022-12-20T14:39:29.489Z,28.85
2022-12-20T14:42:19.258Z,28.77
2022-12-20T14:45:10.899Z,29.48
2022-12-20T14:48:07.390Z,30.50
2022-12-20T14:50:53.997Z,32.05
2022-12-20T14:53:40.446Z,32.42
2022-12-20T14:56:31.743Z,31.70
2022-12-20T14:59:31.739Z,29.10
2022-12-20T15:02:56.028Z,32.25
2022-12-20T15:05:51.847Z,29.50
2022-12-20T15:08:38.286Z,31.63
2022-12-20T15:11:24.174Z,30.10
2022-12-20T15:14:35.151Z,31.92
2022-12-20T15:17:20.607Z,30.55
2022-12-20T15:20:11.833Z,29.80
2022-12-20T15:22:57.347Z,28.58
2022-12-20T15:25:45.540Z,29.15
2022-12-20T15:28:32.643Z,28.02
2022-12-20T15:31:22.235Z,30.35
2022-12-20T15:34:35.246Z,32.30
2022-12-20T15:37:21.431Z,34.80
2022-12-20T15:40:13.303Z,32.75
2022-12-20T15:42:59.143Z,29.77
2022-12-20T15:45:47.578Z,30.75
2022-12-20T15:48:33.261Z,31.92
2022-12-20T15:51:33.900Z,32.08
2022-12-20T15:54:22.907Z,33.72
2022-12-20T15:57:14.068Z,32.90
2022-12-20T16:00:02.747Z,35.40
2022-12-20T16:02:50.666Z,34.60
2022-12-20T16:05:36.560Z,31.58
2022-12-20T16:08:22.264Z,33.67
2022-12-20T16:11:24.312Z,33.22
2022-12-20T16:14:21.176Z,33.83
2022-12-20T16:17:06.762Z,35.10
2022-12-20T16:19:52.641Z,33.33
2022-12-20T16:22:38.059Z,32.17
2022-12-20T16:25:31.325Z,32.10
2022-12-20T16:28:17.983Z,34.72
2022-12-20T16:31:17.588Z,35.47
2022-12-20T16:34:12.100Z,33.40
2022-12-20T16:36:57.855Z,34.58
2022-12-20T16:39:43.785Z,32.53
2022-12-20T16:42:29.254Z,35.17
2022-12-20T16:45:19.180Z,32.45
2022-12-20T16:48:04.917Z,35.20
2022-12-20T16:50:50.207Z,33.33
2022-12-20T16:54:02.134Z,38.15
2022-12-20T16:56:44.039Z,36.67
2022-12-20T16:59:29.695Z,34.88
2022-12-20T17:02:34.961Z,35.10
2022-12-20T17:05:46.991Z,35.40
2022-12-20T17:11:37.466Z,34.42
2022-12-20T17:14:22.950Z,35.97
2022-12-20T17:17:08.436Z,37.63
2022-12-20T17:19:54.764Z,34.13
2022-12-20T17:25:48.731Z,33.70
2022-12-20T17:28:52.928Z,34.92
2022-12-20T17:31:42.923Z,34.53
2022-12-20T17:34:30.487Z,33.30
2022-12-20T17:37:17.469Z,32.47
2022-12-20T17:40:02.846Z,33.92
2022-12-20T17:42:49.185Z,32.17
2022-12-20T17:45:36.291Z,29.98
2022-12-20T17:48:27.399Z,32.55
2022-12-20T17:51:21.647Z,30.98
2022-12-20T17:54:16.077Z,34.50
2022-12-20T17:57:01.617Z,34.97
2022-12-20T17:59:47.343Z,33.72
2022-12-20T18:02:32.896Z,33.30
2022-12-20T18:05:18.725Z,33.95
2022-12-20T18:08:04.256Z,32.17
2022-12-20T18:10:50.046Z,32.15
2022-12-20T18:13:36.361Z,34.10
2022-12-20T18:16:28.856Z,32.08
2022-12-20T18:19:18.999Z,33.67
2022-12-20T18:22:05.101Z,33.92
2022-12-20T18:24:50.467Z,33.50
2022-12-20T18:27:43.115Z,32.65
2022-12-20T18:30:30.196Z,33.75
2022-12-20T18:33:15.956Z,35.78
2022-12-20T18:36:08.661Z,35.15
2022-12-20T18:38:54.908Z,38.05
2022-12-20T18:41:42.915Z,32.80
2022-12-20T18:44:28.868Z,33.63
2022-12-20T18:47:14.165Z,31.73
2022-12-20T18:50:00.727Z,33.22
2022-12-20T18:52:47.109Z,31.10
2022-12-20T18:55:36.161Z,32.17
2022-12-20T18:58:21.846Z,32.08
2022-12-20T19:01:35.680Z,32.38
2022-12-20T19:04:24.825Z,32.70
2022-12-20T19:07:11.241Z,35.15
2022-12-20T19:09:56.499Z,35.47
2022-12-20T19:12:41.813Z,35.47
2022-12-20T19:15:27.296Z,33.17
2022-12-20T19:18:13.129Z,33.05
2022-12-20T19:21:27.256Z,35.38
2022-12-20T19:24:12.661Z,33.45
2022-12-20T19:26:58.017Z,33.17
2022-12-20T19:29:43.305Z,33.10
2022-12-20T19:32:28.865Z,33.20
2022-12-20T19:35:52.878Z,34.92
2022-12-20T19:38:19.748Z,36.47
2022-12-20T19:41:05.853Z,33.70
2022-12-20T19:43:52.398Z,35.13
2022-12-20T19:46:39.319Z,34.88
2022-12-20T19:49:25.352Z,33.85
2022-12-20T19:52:11.304Z,36.67
2022-12-20T19:54:56.578Z,36.50
2022-12-20T19:57:42.067Z,36.15
2022-12-20T20:00:27.466Z,35.30
2022-12-20T20:03:13.901Z,36.58
2022-12-20T20:06:00.286Z,38.97
2022-12-20T20:08:46.205Z,37.65
2022-12-20T20:11:31.576Z,34.42
2022-12-20T20:14:16.849Z,34.95
2022-12-20T20:17:02.235Z,33.78
2022-12-20T20:19:48.582Z,37.15
2022-12-20T20:22:35.319Z,37.08
2022-12-20T20:25:20.778Z,36.22
2022-12-20T20:28:06.188Z,37.55
2022-12-20T20:30:52.556Z,34.55
2022-12-20T20:33:38.636Z,35.80
2022-12-20T20:36:24.641Z,34.03
2022-12-20T20:39:10.406Z,34.13
2022-12-20T20:41:55.877Z,34.70
2022-12-20T20:44:41.334Z,34.35
2022-12-20T20:47:26.676Z,35.30
2022-12-20T20:50:13.149Z,33.03
2022-12-20T20:52:58.566Z,34.60
2022-12-20T20:55:44.155Z,33.55
2022-12-20T20:58:29.515Z,35.15
2022-12-20T21:01:15.297Z,32.85
2022-12-20T21:04:01.222Z,31.58
2022-12-20T21:06:47.322Z,30.90
2022-12-20T21:09:33.220Z,32.75
2022-12-20T21:12:19.524Z,32.58
2022-12-20T21:15:24.371Z,31.98
2022-12-20T21:18:10.975Z,32.15
2022-12-20T21:20:57.195Z,32.50
2022-12-20T21:23:46.357Z,31.73
2022-12-20T21:26:32.025Z,32.40
2022-12-20T21:29:17.797Z,32.80
2022-12-20T21:32:03.431Z,32.15
2022-12-20T21:34:49.118Z,37.85
2022-12-20T21:37:34.501Z,31.75
2022-12-20T21:40:19.756Z,36.13
2022-12-20T21:43:05.101Z,32.95
2022-12-20T21:45:51.118Z,30.58
2022-12-20T21:48:39.774Z,30.20
2022-12-20T21:51:27.410Z,32.10
2022-12-20T21:54:12.792Z,31.30
2022-12-20T21:56:58.233Z,33.38
2022-12-20T21:59:43.548Z,31.35
2022-12-20T22:02:30.064Z,31.10
2022-12-20T22:05:16.017Z,30.75
2022-12-20T22:08:01.677Z,31.02
2022-12-20T22:10:47.484Z,33.90
2022-12-20T22:13:40.815Z,31.73
2022-12-20T22:16:30.925Z,29.67
2022-12-20T22:19:16.575Z,28.83
2022-12-20T22:22:02.257Z,32.65
2022-12-20T22:24:47.690Z,29.55
2022-12-20T22:27:33.000Z,30.05
2022-12-20T22:30:19.095Z,30.48
2022-12-20T22:33:04.636Z,30.73
2022-12-20T22:35:50.124Z,30.90
2022-12-20T22:38:36.015Z,29.63
2022-12-20T22:41:26.497Z,29.35
2022-12-20T22:44:12.125Z,30.80
2022-12-20T22:50:01.447Z,32.38
2022-12-20T22:52:47.119Z,30.13
2022-12-20T22:55:34.854Z,31.52
2022-12-20T22:58:20.765Z,31.42
2022-12-20T23:01:10.424Z,29.02
2022-12-20T23:03:56.321Z,28.60
2022-12-20T23:06:42.133Z,31.23
2022-12-20T23:09:27.966Z,31.27
2022-12-20T23:12:37.059Z,31.30
2022-12-20T23:15:40.550Z,30.35
2022-12-20T23:18:26.047Z,28.50
2022-12-20T23:21:30.832Z,30.10
2022-12-20T23:24:16.894Z,30.58
2022-12-20T23:27:02.828Z,29.35
2022-12-20T23:29:48.305Z,29.50
2022-12-20T23:32:33.978Z,28.60
2022-12-20T23:35:20.698Z,28.23
2022-12-20T23:38:06.297Z,28.40
2022-12-20T23:40:52.128Z,29.67
2022-12-20T23:43:38.071Z,29.95
2022-12-20T23:46:24.778Z,27.50
2022-12-20T23:49:10.540Z,28.25
2022-12-20T23:51:55.846Z,28.00
2022-12-20T23:54:41.220Z,28.45
2022-12-20T23:57:30.534Z,28.77
